sensor_id;sensor_type;location;lat;lon;timestamp;temperature;humidity
22532;DHT22;11432;46.924;7.114;2023-02-28T00:00:48;-0.40;99.90
22532;DHT22;11432;46.924;7.114;2023-02-28T00:03:14;-0.40;99.90
22532;DHT22;11432;46.924;7.114;2023-02-28T00:05:39;-0.40;99.90
22532;DHT22;11432;46.924;7.114;2023-02-28T00:08:05;-0.40;99.90
22532;DHT22;11432;46.924;7.114;2023-02-28T00:10:31;-0.40;99.90
22532;DHT22;11432;46.924;7.114;2023-02-28T00:13:02;-0.30;99.90
22532;DHT22;11432;46.924;7.114;2023-02-28T00:15:29;-0.40;99.90
22532;DHT22;11432;46.924;7.114;2023-02-28T00:17:55;-0.40;99.90
22532;DHT22;11432;46.924;7.114;2023-02-28T00:20:21;-0.40;99.90
22532;DHT22;11432;46.924;7.114;2023-02-28T00:22:49;-0.40;99.90
22532;DHT22;11432;46.924;7.114;2023-02-28T00:25:18;-0.40;99.90
22532;DHT22;11432;46.924;7.114;2023-02-28T00:27:44;-0.40;99.90
22532;DHT22;11432;46.924;7.114;2023-02-28T00:30:13;-0.40;99.90
22532;DHT22;11432;46.924;7.114;2023-02-28T00:32:39;-0.40;99.90
22532;DHT22;11432;46.924;7.114;2023-02-28T00:35:06;-0.40;99.90
22532;DHT22;11432;46.924;7.114;2023-02-28T00:37:32;-0.40;99.90
22532;DHT22;11432;46.924;7.114;2023-02-28T00:39:58;-0.40;99.90
22532;DHT22;11432;46.924;7.114;2023-02-28T00:42:23;-0.40;99.90
22532;DHT22;11432;46.924;7.114;2023-02-28T00:44:49;-0.40;99.90
22532;DHT22;11432;46.924;7.114;2023-02-28T00:47:15;-0.40;99.90
22532;DHT22;11432;46.924;7.114;2023-02-28T00:49:41;-0.40;99.90
22532;DHT22;11432;46.924;7.114;2023-02-28T00:52:06;-0.40;99.90
22532;DHT22;11432;46.924;7.114;2023-02-28T00:54:32;-0.40;1.10
22532;DHT22;11432;46.924;7.114;2023-02-28T00:56:58;-0.40;1.00
22532;DHT22;11432;46.924;7.114;2023-02-28T00:59:24;-0.40;1.00
22532;DHT22;11432;46.924;7.114;2023-02-28T01:01:49;-0.30;1.00
22532;DHT22;11432;46.924;7.114;2023-02-28T01:04:15;-0.30;1.00
22532;DHT22;11432;46.924;7.114;2023-02-28T01:06:41;-0.30;1.00
22532;DHT22;11432;46.924;7.114;2023-02-28T01:09:07;-0.40;1.00
22532;DHT22;11432;46.924;7.114;2023-02-28T01:11:33;-0.30;1.00
22532;DHT22;11432;46.924;7.114;2023-02-28T01:14:00;-0.30;1.00
22532;DHT22;11432;46.924;7.114;2023-02-28T01:16:26;-0.30;1.00
22532;DHT22;11432;46.924;7.114;2023-02-28T01:18:52;-0.30;1.00
22532;DHT22;11432;46.924;7.114;2023-02-28T01:21:20;-0.30;1.00
22532;DHT22;11432;46.924;7.114;2023-02-28T01:23:46;-0.30;1.00
22532;DHT22;11432;46.924;7.114;2023-02-28T01:26:18;-0.30;1.00
22532;DHT22;11432;46.924;7.114;2023-02-28T01:28:45;-0.30;1.00
22532;DHT22;11432;46.924;7.114;2023-02-28T01:31:11;-0.20;1.00
22532;DHT22;11432;46.924;7.114;2023-02-28T01:33:37;-0.20;1.00
22532;DHT22;11432;46.924;7.114;2023-02-28T01:36:15;-0.30;1.00
22532;DHT22;11432;46.924;7.114;2023-02-28T01:38:41;-0.30;1.00
22532;DHT22;11432;46.924;7.114;2023-02-28T01:41:07;-0.30;1.00
22532;DHT22;11432;46.924;7.114;2023-02-28T01:46:08;-0.30;1.00
22532;DHT22;11432;46.924;7.114;2023-02-28T01:48:38;-0.30;1.00
22532;DHT22;11432;46.924;7.114;2023-02-28T01:51:28;-0.30;1.00
22532;DHT22;11432;46.924;7.114;2023-02-28T01:54:00;-0.30;1.00
22532;DHT22;11432;46.924;7.114;2023-02-28T01:56:30;-0.30;1.00
22532;DHT22;11432;46.924;7.114;2023-02-28T01:58:58;-0.30;1.00
22532;DHT22;11432;46.924;7.114;2023-02-28T02:01:25;-0.30;1.00
22532;DHT22;11432;46.924;7.114;2023-02-28T02:03:55;-0.30;1.00
22532;DHT22;11432;46.924;7.114;2023-02-28T02:06:23;-0.30;1.00
22532;DHT22;11432;46.924;7.114;2023-02-28T02:08:50;-0.30;1.00
22532;DHT22;11432;46.924;7.114;2023-02-28T02:11:18;-0.30;1.00
22532;DHT22;11432;46.924;7.114;2023-02-28T02:13:54;-0.30;1.00
22532;DHT22;11432;46.924;7.114;2023-02-28T02:21:54;-0.40;1.00
22532;DHT22;11432;46.924;7.114;2023-02-28T02:30:10;-0.40;1.00
22532;DHT22;11432;46.924;7.114;2023-02-28T02:32:44;-0.40;1.00
22532;DHT22;11432;46.924;7.114;2023-02-28T02:35:37;-0.40;1.00
22532;DHT22;11432;46.924;7.114;2023-02-28T02:38:33;-0.40;1.00
22532;DHT22;11432;46.924;7.114;2023-02-28T02:46:28;-0.40;1.00
22532;DHT22;11432;46.924;7.114;2023-02-28T02:48:57;-0.40;1.00
22532;DHT22;11432;46.924;7.114;2023-02-28T02:51:24;-0.40;1.00
22532;DHT22;11432;46.924;7.114;2023-02-28T02:53:57;-0.40;1.00
22532;DHT22;11432;46.924;7.114;2023-02-28T02:56:28;-0.40;1.00
22532;DHT22;11432;46.924;7.114;2023-02-28T02:59:01;-0.40;1.00
22532;DHT22;11432;46.924;7.114;2023-02-28T03:01:29;-0.40;1.00
22532;DHT22;11432;46.924;7.114;2023-02-28T03:04:08;-0.40;1.00
22532;DHT22;11432;46.924;7.114;2023-02-28T03:06:34;-0.50;1.00
22532;DHT22;11432;46.924;7.114;2023-02-28T03:09:00;-0.40;1.00
22532;DHT22;11432;46.924;7.114;2023-02-28T03:11:26;-0.50;1.00
22532;DHT22;11432;46.924;7.114;2023-02-28T03:24:31;-0.50;1.00
22532;DHT22;11432;46.924;7.114;2023-02-28T03:27:06;-0.50;69.70
22532;DHT22;11432;46.924;7.114;2023-02-28T03:29:37;-0.50;55.60
22532;DHT22;11432;46.924;7.114;2023-02-28T03:32:11;-0.50;92.20
22532;DHT22;11432;46.924;7.114;2023-02-28T03:34:46;-0.50;99.90
22532;DHT22;11432;46.924;7.114;2023-02-28T03:37:18;-0.60;99.90
22532;DHT22;11432;46.924;7.114;2023-02-28T03:39:55;-0.60;99.90
22532;DHT22;11432;46.924;7.114;2023-02-28T03:42:25;-0.60;99.90
22532;DHT22;11432;46.924;7.114;2023-02-28T03:47:37;-0.60;99.90
22532;DHT22;11432;46.924;7.114;2023-02-28T03:50:17;-0.50;99.90
22532;DHT22;11432;46.924;7.114;2023-02-28T03:52:52;-0.60;99.90
22532;DHT22;11432;46.924;7.114;2023-02-28T03:55:20;-0.50;99.90
22532;DHT22;11432;46.924;7.114;2023-02-28T03:58:09;-0.60;99.90
22532;DHT22;11432;46.924;7.114;2023-02-28T04:00:57;-0.60;99.90
22532;DHT22;11432;46.924;7.114;2023-02-28T04:03:24;-0.60;99.90
22532;DHT22;11432;46.924;7.114;2023-02-28T04:05:54;-0.50;99.90
22532;DHT22;11432;46.924;7.114;2023-02-28T04:08:21;-0.60;99.90
22532;DHT22;11432;46.924;7.114;2023-02-28T04:11:36;-0.50;99.90
22532;DHT22;11432;46.924;7.114;2023-02-28T04:13:36;-0.50;99.90
22532;DHT22;11432;46.924;7.114;2023-02-28T04:16:01;-0.60;99.90
22532;DHT22;11432;46.924;7.114;2023-02-28T04:18:27;-0.60;99.90
22532;DHT22;11432;46.924;7.114;2023-02-28T04:20:52;-0.60;99.90
22532;DHT22;11432;46.924;7.114;2023-02-28T04:23:18;-0.60;99.90
22532;DHT22;11432;46.924;7.114;2023-02-28T04:25:44;-0.60;99.90
22532;DHT22;11432;46.924;7.114;2023-02-28T04:28:09;-0.60;99.90
22532;DHT22;11432;46.924;7.114;2023-02-28T04:30:35;-0.60;99.90
22532;DHT22;11432;46.924;7.114;2023-02-28T04:33:01;-0.60;99.90
22532;DHT22;11432;46.924;7.114;2023-02-28T04:35:26;-0.60;99.90
22532;DHT22;11432;46.924;7.114;2023-02-28T04:37:52;-0.60;99.90
22532;DHT22;11432;46.924;7.114;2023-02-28T04:40:18;-0.60;99.90
22532;DHT22;11432;46.924;7.114;2023-02-28T04:42:43;-0.60;99.90
22532;DHT22;11432;46.924;7.114;2023-02-28T04:45:09;-0.60;99.90
22532;DHT22;11432;46.924;7.114;2023-02-28T04:47:36;-0.60;99.90
22532;DHT22;11432;46.924;7.114;2023-02-28T04:50:02;-0.60;99.90
22532;DHT22;11432;46.924;7.114;2023-02-28T04:52:28;-0.60;99.90
22532;DHT22;11432;46.924;7.114;2023-02-28T04:54:54;-0.60;99.90
22532;DHT22;11432;46.924;7.114;2023-02-28T04:57:19;-0.60;99.90
22532;DHT22;11432;46.924;7.114;2023-02-28T04:59:45;-0.60;99.90
22532;DHT22;11432;46.924;7.114;2023-02-28T05:02:11;-0.60;99.90
22532;DHT22;11432;46.924;7.114;2023-02-28T05:04:36;-0.60;99.90
22532;DHT22;11432;46.924;7.114;2023-02-28T05:07:03;-0.60;99.90
22532;DHT22;11432;46.924;7.114;2023-02-28T05:09:29;-0.60;99.90
22532;DHT22;11432;46.924;7.114;2023-02-28T05:11:55;-0.60;99.90
22532;DHT22;11432;46.924;7.114;2023-02-28T05:14:21;-0.60;99.90
22532;DHT22;11432;46.924;7.114;2023-02-28T05:16:46;-0.60;99.90
22532;DHT22;11432;46.924;7.114;2023-02-28T05:19:12;-0.60;99.90
22532;DHT22;11432;46.924;7.114;2023-02-28T05:21:40;-0.60;99.90
22532;DHT22;11432;46.924;7.114;2023-02-28T05:24:11;-0.60;99.90
22532;DHT22;11432;46.924;7.114;2023-02-28T05:26:39;-0.60;99.90
22532;DHT22;11432;46.924;7.114;2023-02-28T05:29:05;-0.50;99.90
22532;DHT22;11432;46.924;7.114;2023-02-28T05:31:31;-0.60;99.90
22532;DHT22;11432;46.924;7.114;2023-02-28T05:33:57;-0.60;99.90
22532;DHT22;11432;46.924;7.114;2023-02-28T05:36:23;-0.60;99.90
22532;DHT22;11432;46.924;7.114;2023-02-28T05:38:49;-0.60;99.90
22532;DHT22;11432;46.924;7.114;2023-02-28T05:41:16;-0.50;99.90
22532;DHT22;11432;46.924;7.114;2023-02-28T05:43:42;-0.50;99.90
22532;DHT22;11432;46.924;7.114;2023-02-28T05:46:09;-0.50;99.90
22532;DHT22;11432;46.924;7.114;2023-02-28T05:48:36;-0.60;99.90
22532;DHT22;11432;46.924;7.114;2023-02-28T05:51:04;-0.50;99.90
22532;DHT22;11432;46.924;7.114;2023-02-28T05:53:30;-0.60;99.90
22532;DHT22;11432;46.924;7.114;2023-02-28T05:55:56;-0.60;99.90
22532;DHT22;11432;46.924;7.114;2023-02-28T05:58:22;-0.60;99.90
22532;DHT22;11432;46.924;7.114;2023-02-28T06:00:48;-0.60;99.90
22532;DHT22;11432;46.924;7.114;2023-02-28T06:03:14;-0.60;99.90
22532;DHT22;11432;46.924;7.114;2023-02-28T06:05:40;-0.60;99.90
22532;DHT22;11432;46.924;7.114;2023-02-28T06:08:05;-0.60;99.90
22532;DHT22;11432;46.924;7.114;2023-02-28T06:10:33;-0.60;99.90
22532;DHT22;11432;46.924;7.114;2023-02-28T06:13:03;-0.60;99.90
22532;DHT22;11432;46.924;7.114;2023-02-28T06:15:29;-0.50;99.90
22532;DHT22;11432;46.924;7.114;2023-02-28T06:17:55;-0.50;99.90
22532;DHT22;11432;46.924;7.114;2023-02-28T06:20:25;-0.50;99.90
22532;DHT22;11432;46.924;7.114;2023-02-28T06:22:55;-0.50;99.90
22532;DHT22;11432;46.924;7.114;2023-02-28T06:25:21;-0.50;99.90
22532;DHT22;11432;46.924;7.114;2023-02-28T06:27:47;-0.50;99.90
22532;DHT22;11432;46.924;7.114;2023-02-28T06:30:13;-0.50;99.90
22532;DHT22;11432;46.924;7.114;2023-02-28T06:32:39;-0.40;99.90
22532;DHT22;11432;46.924;7.114;2023-02-28T06:35:05;-0.40;99.90
22532;DHT22;11432;46.924;7.114;2023-02-28T06:37:31;-0.40;99.90
22532;DHT22;11432;46.924;7.114;2023-02-28T06:39:58;-0.50;99.90
22532;DHT22;11432;46.924;7.114;2023-02-28T06:42:24;-0.50;99.90
22532;DHT22;11432;46.924;7.114;2023-02-28T06:44:55;-0.50;99.90
22532;DHT22;11432;46.924;7.114;2023-02-28T06:47:21;-0.50;99.90
22532;DHT22;11432;46.924;7.114;2023-02-28T06:49:46;-0.50;99.90
22532;DHT22;11432;46.924;7.114;2023-02-28T06:52:12;-0.40;99.90
22532;DHT22;11432;46.924;7.114;2023-02-28T06:54:38;-0.40;99.90
22532;DHT22;11432;46.924;7.114;2023-02-28T06:57:03;-0.40;99.90
22532;DHT22;11432;46.924;7.114;2023-02-28T06:59:30;-0.30;99.90
22532;DHT22;11432;46.924;7.114;2023-02-28T07:01:55;-0.40;99.90
22532;DHT22;11432;46.924;7.114;2023-02-28T07:04:21;-0.30;99.90
22532;DHT22;11432;46.924;7.114;2023-02-28T07:06:47;-0.30;99.90
22532;DHT22;11432;46.924;7.114;2023-02-28T07:09:12;-0.30;99.90
22532;DHT22;11432;46.924;7.114;2023-02-28T07:11:40;-0.30;99.90
22532;DHT22;11432;46.924;7.114;2023-02-28T07:14:06;-0.20;99.90
22532;DHT22;11432;46.924;7.114;2023-02-28T07:16:32;-0.20;99.90
22532;DHT22;11432;46.924;7.114;2023-02-28T07:18:57;-0.10;94.80
22532;DHT22;11432;46.924;7.114;2023-02-28T07:21:23;-0.20;99.90
22532;DHT22;11432;46.924;7.114;2023-02-28T07:23:49;-0.20;76.10
22532;DHT22;11432;46.924;7.114;2023-02-28T07:26:17;-0.20;99.90
22532;DHT22;11432;46.924;7.114;2023-02-28T07:28:45;-0.20;99.90
22532;DHT22;11432;46.924;7.114;2023-02-28T07:31:12;-0.10;99.90
22532;DHT22;11432;46.924;7.114;2023-02-28T07:33:39;-0.20;99.90
22532;DHT22;11432;46.924;7.114;2023-02-28T07:36:11;-0.10;99.90
22532;DHT22;11432;46.924;7.114;2023-02-28T07:38:44;0.20;99.90
22532;DHT22;11432;46.924;7.114;2023-02-28T07:41:10;0.20;1.00
22532;DHT22;11432;46.924;7.114;2023-02-28T07:43:36;0.10;1.00
22532;DHT22;11432;46.924;7.114;2023-02-28T07:46:04;0.00;1.00
22532;DHT22;11432;46.924;7.114;2023-02-28T07:48:29;0.00;1.00
22532;DHT22;11432;46.924;7.114;2023-02-28T07:50:56;0.00;1.00
22532;DHT22;11432;46.924;7.114;2023-02-28T07:53:22;0.00;1.00
22532;DHT22;11432;46.924;7.114;2023-02-28T07:55:48;0.10;1.00
22532;DHT22;11432;46.924;7.114;2023-02-28T07:58:13;0.10;1.00
22532;DHT22;11432;46.924;7.114;2023-02-28T08:00:39;0.20;1.00
22532;DHT22;11432;46.924;7.114;2023-02-28T08:03:04;0.40;1.00
22532;DHT22;11432;46.924;7.114;2023-02-28T08:05:30;0.50;1.00
22532;DHT22;11432;46.924;7.114;2023-02-28T08:07:56;0.60;1.00
22532;DHT22;11432;46.924;7.114;2023-02-28T08:10:22;0.70;1.00
22532;DHT22;11432;46.924;7.114;2023-02-28T08:12:49;0.80;25.20
22532;DHT22;11432;46.924;7.114;2023-02-28T08:15:14;1.00;13.70
22532;DHT22;11432;46.924;7.114;2023-02-28T08:17:40;1.10;99.90
22532;DHT22;11432;46.924;7.114;2023-02-28T08:20:06;1.00;99.90
22532;DHT22;11432;46.924;7.114;2023-02-28T08:22:35;1.00;99.90
22532;DHT22;11432;46.924;7.114;2023-02-28T08:25:01;1.00;99.90
22532;DHT22;11432;46.924;7.114;2023-02-28T08:27:27;0.90;99.90
22532;DHT22;11432;46.924;7.114;2023-02-28T08:29:52;0.90;99.90
22532;DHT22;11432;46.924;7.114;2023-02-28T08:32:18;0.90;99.90
22532;DHT22;11432;46.924;7.114;2023-02-28T08:34:43;1.00;99.90
22532;DHT22;11432;46.924;7.114;2023-02-28T08:37:09;1.10;99.90
22532;DHT22;11432;46.924;7.114;2023-02-28T08:39:35;1.20;99.90
22532;DHT22;11432;46.924;7.114;2023-02-28T08:42:02;1.40;1.00
22532;DHT22;11432;46.924;7.114;2023-02-28T08:44:28;1.60;1.00
22532;DHT22;11432;46.924;7.114;2023-02-28T08:46:53;1.70;1.00
22532;DHT22;11432;46.924;7.114;2023-02-28T08:49:19;2.00;1.00
22532;DHT22;11432;46.924;7.114;2023-02-28T08:51:44;2.10;1.00
22532;DHT22;11432;46.924;7.114;2023-02-28T08:54:10;2.00;1.00
22532;DHT22;11432;46.924;7.114;2023-02-28T08:56:41;2.00;1.00
22532;DHT22;11432;46.924;7.114;2023-02-28T08:59:09;1.90;1.00
22532;DHT22;11432;46.924;7.114;2023-02-28T09:01:34;1.90;1.00
22532;DHT22;11432;46.924;7.114;2023-02-28T09:04:01;1.90;1.00
22532;DHT22;11432;46.924;7.114;2023-02-28T09:06:27;1.90;1.00
22532;DHT22;11432;46.924;7.114;2023-02-28T09:08:56;1.80;1.00
22532;DHT22;11432;46.924;7.114;2023-02-28T09:11:23;1.80;1.00
22532;DHT22;11432;46.924;7.114;2023-02-28T09:13:49;1.80;1.00
22532;DHT22;11432;46.924;7.114;2023-02-28T09:16:16;1.90;1.00
22532;DHT22;11432;46.924;7.114;2023-02-28T09:18:42;1.90;1.00
22532;DHT22;11432;46.924;7.114;2023-02-28T09:21:11;1.90;1.00
22532;DHT22;11432;46.924;7.114;2023-02-28T09:23:40;2.00;1.00
22532;DHT22;11432;46.924;7.114;2023-02-28T09:26:06;2.30;1.00
22532;DHT22;11432;46.924;7.114;2023-02-28T09:28:31;2.40;1.00
22532;DHT22;11432;46.924;7.114;2023-02-28T09:30:57;2.40;1.00
22532;DHT22;11432;46.924;7.114;2023-02-28T09:33:24;2.50;1.00
22532;DHT22;11432;46.924;7.114;2023-02-28T09:35:56;2.60;1.00
22532;DHT22;11432;46.924;7.114;2023-02-28T09:38:22;2.70;1.00
22532;DHT22;11432;46.924;7.114;2023-02-28T09:41:04;2.60;1.00
22532;DHT22;11432;46.924;7.114;2023-02-28T09:43:38;2.60;1.00
22532;DHT22;11432;46.924;7.114;2023-02-28T09:48:53;2.70;1.00
22532;DHT22;11432;46.924;7.114;2023-02-28T09:53:53;2.30;1.00
22532;DHT22;11432;46.924;7.114;2023-02-28T09:56:23;2.30;1.00
22532;DHT22;11432;46.924;7.114;2023-02-28T09:59:13;2.50;1.00
22532;DHT22;11432;46.924;7.114;2023-02-28T10:05:09;2.40;1.00
22532;DHT22;11432;46.924;7.114;2023-02-28T10:10:27;2.50;1.00
22532;DHT22;11432;46.924;7.114;2023-02-28T10:12:55;2.50;1.00
22532;DHT22;11432;46.924;7.114;2023-02-28T10:15:25;2.50;1.00
22532;DHT22;11432;46.924;7.114;2023-02-28T10:17:58;2.50;1.00
22532;DHT22;11432;46.924;7.114;2023-02-28T10:20:25;2.50;1.00
22532;DHT22;11432;46.924;7.114;2023-02-28T10:26:03;2.70;1.00
22532;DHT22;11432;46.924;7.114;2023-02-28T10:28:30;3.10;1.00
22532;DHT22;11432;46.924;7.114;2023-02-28T10:30:57;3.30;1.00
22532;DHT22;11432;46.924;7.114;2023-02-28T10:33:32;3.50;1.00
22532;DHT22;11432;46.924;7.114;2023-02-28T10:35:59;3.60;1.00
22532;DHT22;11432;46.924;7.114;2023-02-28T10:38:28;3.60;3.10
22532;DHT22;11432;46.924;7.114;2023-02-28T10:41:28;3.70;19.70
22532;DHT22;11432;46.924;7.114;2023-02-28T10:44:17;4.00;7.70
22532;DHT22;11432;46.924;7.114;2023-02-28T10:46:45;4.10;44.10
22532;DHT22;11432;46.924;7.114;2023-02-28T10:49:22;4.00;32.30
22532;DHT22;11432;46.924;7.114;2023-02-28T10:51:52;4.30;47.40
22532;DHT22;11432;46.924;7.114;2023-02-28T10:54:30;4.20;45.70
22532;DHT22;11432;46.924;7.114;2023-02-28T10:59:35;4.20;40.20
22532;DHT22;11432;46.924;7.114;2023-02-28T11:02:00;3.80;38.50
22532;DHT22;11432;46.924;7.114;2023-02-28T11:07:03;3.80;24.00
22532;DHT22;11432;46.924;7.114;2023-02-28T11:09:38;3.80;13.20
22532;DHT22;11432;46.924;7.114;2023-02-28T11:12:07;3.60;17.60
22532;DHT22;11432;46.924;7.114;2023-02-28T11:14:36;4.00;16.00
22532;DHT22;11432;46.924;7.114;2023-02-28T11:17:15;4.30;11.10
22532;DHT22;11432;46.924;7.114;2023-02-28T11:19:47;4.20;15.00
22532;DHT22;11432;46.924;7.114;2023-02-28T11:22:23;4.50;4.10
22532;DHT22;11432;46.924;7.114;2023-02-28T11:24:53;4.50;25.40
22532;DHT22;11432;46.924;7.114;2023-02-28T11:29:55;4.50;24.50
22532;DHT22;11432;46.924;7.114;2023-02-28T11:32:22;4.20;15.40
22532;DHT22;11432;46.924;7.114;2023-02-28T11:37:34;4.20;8.50
22532;DHT22;11432;46.924;7.114;2023-02-28T11:40:00;4.00;8.90
22532;DHT22;11432;46.924;7.114;2023-02-28T11:48:29;3.90;1.00
22532;DHT22;11432;46.924;7.114;2023-02-28T11:51:15;3.90;1.00
22532;DHT22;11432;46.924;7.114;2023-02-28T11:56:41;5.20;15.90
22532;DHT22;11432;46.924;7.114;2023-02-28T12:05:02;4.40;1.00
22532;DHT22;11432;46.924;7.114;2023-02-28T12:08:07;4.50;9.90
22532;DHT22;11432;46.924;7.114;2023-02-28T12:10:50;4.50;1.00
22532;DHT22;11432;46.924;7.114;2023-02-28T12:13:26;4.70;1.00
22532;DHT22;11432;46.924;7.114;2023-02-28T12:21:32;5.40;1.00
22532;DHT22;11432;46.924;7.114;2023-02-28T12:27:02;4.30;1.00
22532;DHT22;11432;46.924;7.114;2023-02-28T12:29:43;4.20;1.00
22532;DHT22;11432;46.924;7.114;2023-02-28T12:34:52;4.50;1.00
22532;DHT22;11432;46.924;7.114;2023-02-28T12:40:13;4.30;1.00
22532;DHT22;11432;46.924;7.114;2023-02-28T12:42:44;4.50;1.00
22532;DHT22;11432;46.924;7.114;2023-02-28T12:45:27;4.40;1.00
22532;DHT22;11432;46.924;7.114;2023-02-28T12:48:00;4.50;1.00
22532;DHT22;11432;46.924;7.114;2023-02-28T12:50:26;4.60;1.00
22532;DHT22;11432;46.924;7.114;2023-02-28T13:00:36;4.50;1.00
22532;DHT22;11432;46.924;7.114;2023-02-28T13:06:03;4.50;1.00
22532;DHT22;11432;46.924;7.114;2023-02-28T13:08:42;4.70;1.00
22532;DHT22;11432;46.924;7.114;2023-02-28T13:19:44;4.80;1.00
22532;DHT22;11432;46.924;7.114;2023-02-28T13:25:01;5.70;1.00
22532;DHT22;11432;46.924;7.114;2023-02-28T13:27:38;5.80;1.00
22532;DHT22;11432;46.924;7.114;2023-02-28T13:33:32;5.70;1.00
22532;DHT22;11432;46.924;7.114;2023-02-28T13:38:48;5.90;1.00
22532;DHT22;11432;46.924;7.114;2023-02-28T13:44:06;5.70;1.00
22532;DHT22;11432;46.924;7.114;2023-02-28T13:47:15;5.10;1.00
22532;DHT22;11432;46.924;7.114;2023-02-28T13:51:50;6.60;1.00
22532;DHT22;11432;46.924;7.114;2023-02-28T14:00:50;8.70;1.00
22532;DHT22;11432;46.924;7.114;2023-02-28T14:06:26;8.60;1.00
22532;DHT22;11432;46.924;7.114;2023-02-28T14:11:30;9.10;1.00
22532;DHT22;11432;46.924;7.114;2023-02-28T14:13:57;7.80;1.00
22532;DHT22;11432;46.924;7.114;2023-02-28T14:16:24;7.30;1.00
22532;DHT22;11432;46.924;7.114;2023-02-28T14:19:05;8.00;1.00
22532;DHT22;11432;46.924;7.114;2023-02-28T14:21:36;7.60;1.00
22532;DHT22;11432;46.924;7.114;2023-02-28T14:29:58;7.00;1.00
22532;DHT22;11432;46.924;7.114;2023-02-28T14:37:51;7.00;1.00
22532;DHT22;11432;46.924;7.114;2023-02-28T14:40:24;7.90;1.00
22532;DHT22;11432;46.924;7.114;2023-02-28T14:42:57;8.10;1.00
22532;DHT22;11432;46.924;7.114;2023-02-28T14:45:23;6.90;1.00
22532;DHT22;11432;46.924;7.114;2023-02-28T14:47:50;6.20;1.00
22532;DHT22;11432;46.924;7.114;2023-02-28T14:50:34;5.40;1.00
22532;DHT22;11432;46.924;7.114;2023-02-28T14:53:01;5.00;1.00
22532;DHT22;11432;46.924;7.114;2023-02-28T14:55:47;4.90;1.00
22532;DHT22;11432;46.924;7.114;2023-02-28T14:58:22;5.40;1.00
22532;DHT22;11432;46.924;7.114;2023-02-28T15:00:50;5.50;1.00
22532;DHT22;11432;46.924;7.114;2023-02-28T15:05:55;4.60;1.00
22532;DHT22;11432;46.924;7.114;2023-02-28T15:08:21;4.50;1.00
22532;DHT22;11432;46.924;7.114;2023-02-28T15:10:51;4.20;1.00
22532;DHT22;11432;46.924;7.114;2023-02-28T15:13:19;4.10;1.00
22532;DHT22;11432;46.924;7.114;2023-02-28T15:16:01;4.00;1.00
22532;DHT22;11432;46.924;7.114;2023-02-28T15:18:49;3.80;1.00
22532;DHT22;11432;46.924;7.114;2023-02-28T15:23:56;3.70;1.00
22532;DHT22;11432;46.924;7.114;2023-02-28T15:26:27;3.70;1.00
22532;DHT22;11432;46.924;7.114;2023-02-28T15:29:04;3.90;1.00
22532;DHT22;11432;46.924;7.114;2023-02-28T15:31:39;3.60;1.00
22532;DHT22;11432;46.924;7.114;2023-02-28T15:34:15;3.60;1.00
22532;DHT22;11432;46.924;7.114;2023-02-28T15:36:43;3.70;1.00
22532;DHT22;11432;46.924;7.114;2023-02-28T15:39:23;3.70;1.00
22532;DHT22;11432;46.924;7.114;2023-02-28T15:41:50;3.50;1.00
22532;DHT22;11432;46.924;7.114;2023-02-28T15:44:25;3.40;1.00
22532;DHT22;11432;46.924;7.114;2023-02-28T15:47:06;3.30;1.00
22532;DHT22;11432;46.924;7.114;2023-02-28T15:50:12;3.30;1.00
22532;DHT22;11432;46.924;7.114;2023-02-28T15:52:43;3.20;1.00
22532;DHT22;11432;46.924;7.114;2023-02-28T15:57:53;3.30;1.00
22532;DHT22;11432;46.924;7.114;2023-02-28T16:00:22;3.20;1.00
22532;DHT22;11432;46.924;7.114;2023-02-28T16:02:49;2.90;1.00
22532;DHT22;11432;46.924;7.114;2023-02-28T16:08:01;2.60;1.00
22532;DHT22;11432;46.924;7.114;2023-02-28T16:10:28;2.50;1.00
22532;DHT22;11432;46.924;7.114;2023-02-28T16:12:55;2.30;99.90
22532;DHT22;11432;46.924;7.114;2023-02-28T16:15:25;2.20;99.90
22532;DHT22;11432;46.924;7.114;2023-02-28T16:17:52;2.20;99.90
22532;DHT22;11432;46.924;7.114;2023-02-28T16:20:20;2.00;99.90
22532;DHT22;11432;46.924;7.114;2023-02-28T16:22:46;1.90;99.90
22532;DHT22;11432;46.924;7.114;2023-02-28T16:25:28;1.90;99.90
22532;DHT22;11432;46.924;7.114;2023-02-28T16:27:58;1.90;99.90
22532;DHT22;11432;46.924;7.114;2023-02-28T16:30:27;1.90;99.90
22532;DHT22;11432;46.924;7.114;2023-02-28T16:32:55;1.80;90.00
22532;DHT22;11432;46.924;7.114;2023-02-28T16:35:21;1.80;59.80
22532;DHT22;11432;46.924;7.114;2023-02-28T16:37:47;1.70;1.00
22532;DHT22;11432;46.924;7.114;2023-02-28T16:40:18;1.70;1.00
22532;DHT22;11432;46.924;7.114;2023-02-28T16:42:47;1.80;99.90
22532;DHT22;11432;46.924;7.114;2023-02-28T16:45:20;1.80;1.00
22532;DHT22;11432;46.924;7.114;2023-02-28T16:47:47;1.80;7.70
22532;DHT22;11432;46.924;7.114;2023-02-28T16:50:18;1.70;47.20
22532;DHT22;11432;46.924;7.114;2023-02-28T16:52:44;1.70;50.50
22532;DHT22;11432;46.924;7.114;2023-02-28T16:55:10;1.40;1.80
22532;DHT22;11432;46.924;7.114;2023-02-28T16:57:36;1.30;19.00
22532;DHT22;11432;46.924;7.114;2023-02-28T17:00:03;1.30;99.90
22532;DHT22;11432;46.924;7.114;2023-02-28T17:02:30;1.30;1.00
22532;DHT22;11432;46.924;7.114;2023-02-28T17:04:55;1.30;1.00
22532;DHT22;11432;46.924;7.114;2023-02-28T17:07:21;1.30;1.00
22532;DHT22;11432;46.924;7.114;2023-02-28T17:09:46;1.30;1.00
22532;DHT22;11432;46.924;7.114;2023-02-28T17:12:12;1.30;1.00
22532;DHT22;11432;46.924;7.114;2023-02-28T17:14:38;1.20;1.00
22532;DHT22;11432;46.924;7.114;2023-02-28T17:17:09;1.20;1.00
22532;DHT22;11432;46.924;7.114;2023-02-28T17:19:35;1.20;1.00
22532;DHT22;11432;46.924;7.114;2023-02-28T17:22:02;1.20;1.00
22532;DHT22;11432;46.924;7.114;2023-02-28T17:24:28;1.20;1.00
22532;DHT22;11432;46.924;7.114;2023-02-28T17:26:54;1.10;1.00
22532;DHT22;11432;46.924;7.114;2023-02-28T17:29:21;1.10;1.00
22532;DHT22;11432;46.924;7.114;2023-02-28T17:31:47;1.10;1.00
22532;DHT22;11432;46.924;7.114;2023-02-28T17:34:12;1.00;1.00
22532;DHT22;11432;46.924;7.114;2023-02-28T17:36:44;1.00;1.00
22532;DHT22;11432;46.924;7.114;2023-02-28T17:39:12;1.10;1.00
22532;DHT22;11432;46.924;7.114;2023-02-28T17:41:40;1.00;99.90
22532;DHT22;11432;46.924;7.114;2023-02-28T17:44:07;1.00;99.90
22532;DHT22;11432;46.924;7.114;2023-02-28T17:46:33;1.00;99.90
22532;DHT22;11432;46.924;7.114;2023-02-28T17:48:59;0.90;99.90
22532;DHT22;11432;46.924;7.114;2023-02-28T17:51:25;0.90;99.90
22532;DHT22;11432;46.924;7.114;2023-02-28T17:53:51;0.90;1.00
22532;DHT22;11432;46.924;7.114;2023-02-28T17:56:22;0.90;99.90
22532;DHT22;11432;46.924;7.114;2023-02-28T17:58:48;1.00;99.90
22532;DHT22;11432;46.924;7.114;2023-02-28T18:01:15;1.00;99.90
22532;DHT22;11432;46.924;7.114;2023-02-28T18:03:40;1.00;99.90
22532;DHT22;11432;46.924;7.114;2023-02-28T18:06:07;1.00;99.90
22532;DHT22;11432;46.924;7.114;2023-02-28T18:08:38;0.90;99.90
22532;DHT22;11432;46.924;7.114;2023-02-28T18:11:04;1.00;99.90
22532;DHT22;11432;46.924;7.114;2023-02-28T18:13:30;1.20;1.00
22532;DHT22;11432;46.924;7.114;2023-02-28T18:15:55;1.10;1.00
22532;DHT22;11432;46.924;7.114;2023-02-28T18:18:21;1.00;1.00
22532;DHT22;11432;46.924;7.114;2023-02-28T18:22:12;0.90;1.00
22532;DHT22;11432;46.924;7.114;2023-02-28T18:24:38;0.90;1.00
22532;DHT22;11432;46.924;7.114;2023-02-28T18:27:04;0.90;29.30
22532;DHT22;11432;46.924;7.114;2023-02-28T18:29:30;0.90;1.00
22532;DHT22;11432;46.924;7.114;2023-02-28T18:31:57;0.90;1.00
22532;DHT22;11432;46.924;7.114;2023-02-28T18:34:23;0.90;38.50